Temp: 17.2°C   Baro: 1010.2mb
  Wind: 13.0mph   Dir: W (272°)
  Rain: 0.8mm (0.0mm/hr)
  Solar: 146W/m2  Hum: 92%
 
Bath Spa Weather Station Historical Data
Daily Summary for November 20, 2019 Units:  Metric    English   Both
Daily Weekly Monthly Yearly Custom
  High: Low: Average:
Temperature: 8.2 °C 5.1 °C 7.1 °C
Dew Point: 6.4 °C 2.1 °C 4 °C
Humidity: 90% 69% 81%
Wind Speed: 20km/h 2.4km/h 9.3km/h
Wind Gust: 38.6km/h - -
Wind- - SE
Pressure: 1012.4 hPa 1004.6 hPa -
Precipitation: 0 mm    
Historical Graphs
 
 
Tabular Data for November 20, 2019
Time Temperature Dew Point Pressure Wind Wind Speed Wind Gust Humidity Rainfall Rate (Hourly) solar
00:04 7.8 °C 5.8 °C 1012.4 hPa ESE 5.6 km/h 16.1 km/h 87% 0 mm 0 W/m2
00:09 7.8 °C 5.8 °C 1012.4 hPa ESE 6.6 km/h 14.5 km/h 87% 0 mm 0 W/m2
00:14 7.8 °C 5.8 °C 1012.4 hPa ESE 6.3 km/h 11.3 km/h 87% 0 mm 0 W/m2
00:19 7.8 °C 5.8 °C 1012.1 hPa ESE 6.3 km/h 11.3 km/h 87% 0 mm 0 W/m2
00:24 7.9 °C 5.9 °C 1012.1 hPa ESE 7.4 km/h 17.7 km/h 87% 0 mm 0 W/m2
00:29 7.9 °C 5.9 °C 1012.1 hPa ESE 9.5 km/h 17.7 km/h 87% 0 mm 0 W/m2
00:34 8.1 °C 6.1 °C 1012.1 hPa SE 7.4 km/h 14.5 km/h 87% 0 mm 0 W/m2
00:39 8.1 °C 6.1 °C 1012.1 hPa SE 8.5 km/h 22.5 km/h 87% 0 mm 0 W/m2
00:44 8.2 °C 6.2 °C 1012.1 hPa SE 9.2 km/h 16.1 km/h 87% 0 mm 0 W/m2
00:49 8.2 °C 6.2 °C 1012.1 hPa SE 9.7 km/h 16.1 km/h 87% 0 mm 0 W/m2
00:54 8.2 °C 6.2 °C 1012.1 hPa ESE 7.9 km/h 16.1 km/h 87% 0 mm 0 W/m2
00:59 8.2 °C 6.2 °C 1012.1 hPa ESE 8.4 km/h 16.1 km/h 87% 0 mm 0 W/m2
01:04 8.2 °C 6.2 °C 1012.1 hPa ESE 7.6 km/h 12.9 km/h 87% 0 mm 0 W/m2
01:09 8.2 °C 6.2 °C 1011.7 hPa ESE 7.9 km/h 19.3 km/h 87% 0 mm 0 W/m2
01:14 8.2 °C 6.2 °C 1011.7 hPa ESE 7.2 km/h 17.7 km/h 87% 0 mm 0 W/m2
01:19 8.2 °C 6.2 °C 1011.7 hPa ESE 7.6 km/h 17.7 km/h 87% 0 mm 0 W/m2
01:24 8.1 °C 6.1 °C 1011.7 hPa ESE 7.7 km/h 16.1 km/h 87% 0 mm 0 W/m2
01:29 8.1 °C 6.1 °C 1011.7 hPa ESE 8.7 km/h 17.7 km/h 87% 0 mm 0 W/m2
01:34 8 °C 6 °C 1011.7 hPa ESE 8.7 km/h 19.3 km/h 87% 0 mm 0 W/m2
01:39 8 °C 6 °C 1011.7 hPa ESE 8.4 km/h 19.3 km/h 87% 0 mm 0 W/m2
01:44 7.9 °C 5.9 °C 1011.7 hPa ESE 7.1 km/h 12.9 km/h 87% 0 mm 0 W/m2
01:49 7.9 °C 5.9 °C 1011.7 hPa ESE 6.3 km/h 14.5 km/h 87% 0 mm 0 W/m2
01:54 7.8 °C 5.8 °C 1011.7 hPa ESE 6.9 km/h 12.9 km/h 87% 0 mm 0 W/m2
01:59 7.8 °C 5.8 °C 1011.7 hPa ESE 7.7 km/h 17.7 km/h 87% 0 mm 0 W/m2
02:04 7.8 °C 5.8 °C 1011.7 hPa ESE 8.4 km/h 14.5 km/h 87.2% 0 mm 0 W/m2
02:09 7.8 °C 5.9 °C 1011.7 hPa ESE 7.6 km/h 12.9 km/h 87.4% 0 mm 0 W/m2
02:14 7.9 °C 6 °C 1011.7 hPa ESE 9 km/h 16.1 km/h 88% 0 mm 0 W/m2
02:19 7.9 °C 6 °C 1011.4 hPa ESE 6.3 km/h 16.1 km/h 88% 0 mm 0 W/m2
02:24 7.9 °C 6 °C 1011.4 hPa ESE 7.7 km/h 14.5 km/h 88% 0 mm 0 W/m2
02:29 7.9 °C 6 °C 1011.4 hPa ESE 7.9 km/h 17.7 km/h 88% 0 mm 0 W/m2
02:34 7.9 °C 6 °C 1011.4 hPa SE 8.7 km/h 17.7 km/h 88% 0 mm 0 W/m2
02:39 7.9 °C 6.1 °C 1011.4 hPa ESE 7.6 km/h 14.5 km/h 88% 0 mm 0 W/m2
02:44 7.9 °C 6.1 °C 1011.4 hPa ESE 9.3 km/h 16.1 km/h 88% 0 mm 0 W/m2
02:49 7.9 °C 6.1 °C 1011.4 hPa ESE 8.7 km/h 12.9 km/h 88% 0 mm 0 W/m2
02:54 7.9 °C 6 °C 1011.4 hPa ESE 8.2 km/h 16.1 km/h 88% 0 mm 0 W/m2
02:59 7.9 °C 6 °C 1011.4 hPa ESE 6.8 km/h 16.1 km/h 88% 0 mm 0 W/m2
03:04 7.9 °C 6 °C 1011.4 hPa ESE 6.4 km/h 14.5 km/h 88% 0 mm 0 W/m2
03:09 7.8 °C 5.9 °C 1011.4 hPa ESE 6.8 km/h 14.5 km/h 88% 0 mm 0 W/m2
03:14 7.8 °C 5.9 °C 1011.4 hPa ESE 5 km/h 17.7 km/h 88% 0 mm 0 W/m2
03:19 7.8 °C 5.9 °C 1011.1 hPa East 4 km/h 12.9 km/h 88% 0 mm 0 W/m2
03:24 7.8 °C 5.9 °C 1011.1 hPa SE 5.1 km/h 14.5 km/h 88% 0 mm 0 W/m2
03:29 7.8 °C 5.9 °C 1011.1 hPa ESE 5.6 km/h 11.3 km/h 88% 0 mm 0 W/m2
03:34 7.8 °C 5.8 °C 1011.1 hPa ESE 3.5 km/h 11.3 km/h 88% 0 mm 0 W/m2
03:39 7.7 °C 5.8 °C 1011.1 hPa ESE 8.2 km/h 16.1 km/h 88% 0 mm 0 W/m2
03:44 7.8 °C 6 °C 1010.7 hPa ESE 8.5 km/h 14.5 km/h 88.6% 0 mm 0 W/m2
03:49 7.8 °C 6.1 °C 1010.7 hPa ESE 6.9 km/h 14.5 km/h 88.8% 0 mm 0 W/m2
03:54 7.8 °C 6.1 °C 1010.7 hPa SE 7.4 km/h 14.5 km/h 89% 0 mm 0 W/m2
03:59 7.8 °C 6.1 °C 1010.7 hPa ESE 7.2 km/h 14.5 km/h 89% 0 mm 0 W/m2
04:04 7.8 °C 6.1 °C 1010.7 hPa ESE 5.6 km/h 16.1 km/h 89% 0 mm 0 W/m2
04:09 7.8 °C 6.1 °C 1010.7 hPa ESE 6 km/h 16.1 km/h 89% 0 mm 0 W/m2
04:14 7.7 °C 6 °C 1010.7 hPa ESE 8.9 km/h 19.3 km/h 89% 0 mm 0 W/m2
04:19 7.7 °C 6 °C 1010.7 hPa ESE 10 km/h 16.1 km/h 89% 0 mm 0 W/m2
04:24 7.7 °C 6 °C 1010.7 hPa SE 7.4 km/h 16.1 km/h 89% 0 mm 0 W/m2
04:29 7.7 °C 6 °C 1010.7 hPa ESE 6.6 km/h 14.5 km/h 89% 0 mm 0 W/m2
04:34 7.7 °C 5.9 °C 1010.7 hPa ESE 6.8 km/h 14.5 km/h 89% 0 mm 0 W/m2
04:39 7.6 °C 5.9 °C 1010.7 hPa ESE 7.6 km/h 16.1 km/h 89% 0 mm 0 W/m2
04:44 7.6 °C 5.9 °C 1010.7 hPa SE 5 km/h 14.5 km/h 89% 0 mm 0 W/m2
04:49 7.6 °C 6.1 °C 1010.7 hPa SE 7.6 km/h 14.5 km/h 90% 0 mm 0 W/m2
04:54 7.6 °C 6.1 °C 1010.7 hPa SE 6.8 km/h 19.3 km/h 90% 0 mm 0 W/m2
04:59 7.6 °C 6.1 °C 1010.7 hPa SE 5.8 km/h 19.3 km/h 90% 0 mm 0 W/m2
05:04 7.6 °C 6.1 °C 1010.4 hPa SE 7.2 km/h 16.1 km/h 90% 0 mm 0 W/m2
05:09 7.7 °C 6.2 °C 1010.4 hPa SE 6.9 km/h 16.1 km/h 90% 0 mm 0 W/m2
05:14 7.7 °C 6.2 °C 1010.4 hPa SE 7.2 km/h 16.1 km/h 90% 0 mm 0 W/m2
05:19 7.7 °C 6.2 °C 1010.4 hPa SE 6.6 km/h 12.9 km/h 90% 0 mm 0 W/m2
05:24 7.8 °C 6.3 °C 1010.7 hPa SE 7.1 km/h 16.1 km/h 90% 0 mm 0 W/m2
05:29 7.8 °C 6.3 °C 1010.7 hPa SE 6.4 km/h 16.1 km/h 90% 0 mm 0 W/m2
05:34 7.8 °C 6.3 °C 1010.4 hPa SE 7.4 km/h 16.1 km/h 90% 0 mm 0 W/m2
05:39 7.9 °C 6.4 °C 1010.7 hPa SE 7.4 km/h 16.1 km/h 90% 0 mm 0 W/m2
05:44 7.9 °C 6.4 °C 1010.7 hPa SE 9.8 km/h 20.9 km/h 89.7% 0 mm 0 W/m2
05:49 8.1 °C 6.3 °C 1010.7 hPa SE 9.8 km/h 20.9 km/h 89% 0 mm 0 W/m2
05:54 8.1 °C 6.3 °C 1010.7 hPa SSE 5.5 km/h 17.7 km/h 88.7% 0 mm 0 W/m2
05:59 8.1 °C 6.2 °C 1010.7 hPa SE 6.4 km/h 16.1 km/h 88% 0 mm 0 W/m2
06:04 8.1 °C 6.2 °C 1010.7 hPa SE 9.5 km/h 19.3 km/h 88% 0 mm 0 W/m2
06:09 8 °C 6.1 °C 1010.7 hPa SE 8.4 km/h 19.3 km/h 88% 0 mm 0 W/m2
06:14 7.9 °C 6.1 °C 1010.7 hPa SE 9.3 km/h 17.7 km/h 88% 0 mm 0 W/m2
06:19 7.9 °C 6 °C 1010.7 hPa SE 7.6 km/h 17.7 km/h 88% 0 mm 0 W/m2
06:24 7.9 °C 6 °C 1010.7 hPa SE 8 km/h 16.1 km/h 87.8% 0 mm 0 W/m2
06:29 7.8 °C 5.8 °C 1010.7 hPa SE 6.1 km/h 14.5 km/h 87% 0 mm 0 W/m2
06:34 7.8 °C 5.8 °C 1010.7 hPa SE 7.7 km/h 19.3 km/h 87.6% 0 mm 0 W/m2
06:39 7.7 °C 5.8 °C 1010.7 hPa SSE 8.4 km/h 19.3 km/h 87.1% 0 mm 0 W/m2
06:44 7.7 °C 5.7 °C 1010.7 hPa SE 9 km/h 19.3 km/h 87% 0 mm 0 W/m2
06:49 7.8 °C 5.7 °C 1010.7 hPa SE 11.7 km/h 27.4 km/h 86.6% 0 mm 0 W/m2
06:54 7.8 °C 5.5 °C 1010.7 hPa SE 9 km/h 27.4 km/h 85.6% 0 mm 0 W/m2
06:59 7.8 °C 5.3 °C 1010.7 hPa SSE 13.7 km/h 29 km/h 84.5% 0 mm 0 W/m2
07:04 7.9 °C 5.3 °C 1010.7 hPa SE 11.3 km/h 29 km/h 83.7% 0 mm 0 W/m2
07:09 7.8 °C 5.2 °C 1010.7 hPa SE 10.8 km/h 20.9 km/h 83% 0 mm 0 W/m2
07:14 7.8 °C 5 °C 1010.7 hPa SSE 10.9 km/h 25.7 km/h 82.4% 0 mm 0 W/m2
07:19 7.8 °C 4.9 °C 1010.7 hPa SSE 11.4 km/h 27.4 km/h 82% 0 mm 0 W/m2
07:24 7.7 °C 4.8 °C 1010.7 hPa SSE 8.7 km/h 19.3 km/h 82% 0 mm 0 W/m2
07:29 7.7 °C 4.8 °C 1010.7 hPa SSE 10.9 km/h 22.5 km/h 82% 0 mm 0 W/m2
07:34 7.7 °C 4.8 °C 1010.7 hPa SSE 9.2 km/h 22.5 km/h 82% 0 mm 0 W/m2
07:39 7.6 °C 4.7 °C 1010.7 hPa SE 8.4 km/h 17.7 km/h 82% 0 mm 0 W/m2
07:44 7.6 °C 4.7 °C 1010.7 hPa SE 10.6 km/h 17.7 km/h 82% 0 mm 5 W/m2
07:49 7.6 °C 4.7 °C 1010.7 hPa SSE 7.6 km/h 17.7 km/h 82% 0 mm 7 W/m2
07:54 7.4 °C 4.5 °C 1010.7 hPa SSE 6.1 km/h 17.7 km/h 82% 0 mm 9 W/m2
07:59 7.4 °C 4.5 °C 1010.7 hPa SE 6.4 km/h 16.1 km/h 82% 0 mm 14 W/m2
08:04 7.3 °C 4.4 °C 1010.7 hPa SE 6.9 km/h 17.7 km/h 82% 0 mm 19 W/m2
08:09 7.2 °C 4.3 °C 1010.7 hPa SE 5.3 km/h 12.9 km/h 82.3% 0 mm 26 W/m2
08:14 7.2 °C 4.4 °C 1010.7 hPa SE 6.3 km/h 12.9 km/h 83% 0 mm 30 W/m2
08:19 7.1 °C 4.4 °C 1010.7 hPa SE 6.3 km/h 17.7 km/h 83% 0 mm 37 W/m2
08:24 7.2 °C 4.7 °C 1010.7 hPa SE 5.6 km/h 17.7 km/h 83.8% 0 mm 39 W/m2
08:29 7.2 °C 4.7 °C 1010.7 hPa SSE 5.3 km/h 12.9 km/h 84.4% 0 mm 42 W/m2
08:34 7.2 °C 4.8 °C 1010.7 hPa SSE 6.6 km/h 12.9 km/h 85% 0 mm 46 W/m2
08:39 7.2 °C 4.8 °C 1010.7 hPa SE 7.9 km/h 17.7 km/h 85% 0 mm 51 W/m2
08:44 7.3 °C 4.8 °C 1010.7 hPa SSE 6.8 km/h 17.7 km/h 85% 0 mm 56 W/m2
08:49 7.3 °C 4.9 °C 1010.7 hPa SE 8.5 km/h 19.3 km/h 85.2% 0 mm 65 W/m2
08:54 7.3 °C 5.1 °C 1010.7 hPa SE 9 km/h 22.5 km/h 86% 0 mm 74 W/m2
08:59 7.2 °C 5.1 °C 1010.7 hPa SE 8 km/h 20.9 km/h 86% 0 mm 76 W/m2
09:04 7.2 °C 5 °C 1010.7 hPa SSE 10.3 km/h 27.4 km/h 86% 0 mm 76 W/m2
09:09 7.2 °C 4.8 °C 1010.7 hPa SE 9.5 km/h 20.9 km/h 85.1% 0 mm 67 W/m2
09:14 7.2 °C 4.8 °C 1010.7 hPa SE 9.3 km/h 19.3 km/h 85% 0 mm 72 W/m2
09:19 7.2 °C 4.8 °C 1010.7 hPa SSE 10.5 km/h 20.9 km/h 85% 0 mm 79 W/m2
09:24 7.2 °C 4.8 °C 1010.7 hPa SE 9.3 km/h 16.1 km/h 85% 0 mm 84 W/m2
09:29 7.2 °C 4.8 °C 1010.4 hPa SE 10.9 km/h 20.9 km/h 84.7% 0 mm 88 W/m2
09:34 7.3 °C 4.8 °C 1010.4 hPa SE 10.5 km/h 25.7 km/h 84% 0 mm 98 W/m2
09:39 7.3 °C 4.8 °C 1010.4 hPa SSE 7.9 km/h 22.5 km/h 84% 0 mm 102 W/m2
09:44 7.3 °C 4.7 °C 1010.4 hPa SSE 6.8 km/h 14.5 km/h 83.4% 0 mm 109 W/m2
09:49 7.4 °C 4.7 °C 1010.4 hPa SSE 11.6 km/h 20.9 km/h 83% 0 mm 105 W/m2
09:54 7.4 °C 4.6 °C 1010.4 hPa SSE 13.2 km/h 22.5 km/h 82.2% 0 mm 90 W/m2
09:59 7.4 °C 4.5 °C 1010.4 hPa SSE 12.1 km/h 24.1 km/h 81.9% 0 mm 90 W/m2
10:04 7.4 °C 4.4 °C 1010.4 hPa SSE 15.3 km/h 27.4 km/h 81% 0 mm 76 W/m2
10:09 7.5 °C 4.5 °C 1010.4 hPa SSE 12.9 km/h 27.4 km/h 81% 0 mm 77 W/m2
10:14 7.5 °C 4.4 °C 1010.4 hPa SSE 13.8 km/h 24.1 km/h 80.6% 0 mm 90 W/m2
10:19 7.6 °C 4.3 °C 1010 hPa SSE 14.5 km/h 25.7 km/h 80% 0 mm 105 W/m2
10:24 7.6 °C 4.2 °C 1010 hPa SSE 16.7 km/h 27.4 km/h 79.1% 0 mm 111 W/m2
10:29 7.6 °C 4.2 °C 1010 hPa SSE 16.1 km/h 30.6 km/h 78.8% 0 mm 118 W/m2
10:34 7.7 °C 4 °C 1010 hPa SSE 15.8 km/h 30.6 km/h 77.7% 0 mm 125 W/m2
10:39 7.7 °C 3.9 °C 1010 hPa SSE 15.1 km/h 25.7 km/h 77% 0 mm 137 W/m2
10:44 7.7 °C 3.8 °C 1010 hPa SSE 16.9 km/h 38.6 km/h 76.4% 0 mm 132 W/m2
10:49 7.7 °C 3.7 °C 1010 hPa SSE 19.5 km/h 38.6 km/h 76% 0 mm 139 W/m2
10:54 7.8 °C 3.8 °C 1010 hPa SSE 15.4 km/h 33.8 km/h 76% 0 mm 135 W/m2
10:59 7.7 °C 3.6 °C 1009.7 hPa SSE 17.2 km/h 33.8 km/h 75.4% 0 mm 137 W/m2
11:04 7.7 °C 3.5 °C 1009.7 hPa SSE 17.1 km/h 33.8 km/h 75% 0 mm 132 W/m2
11:09 7.7 °C 3.5 °C 1009.7 hPa SSE 16.4 km/h 30.6 km/h 75% 0 mm 139 W/m2
11:14 7.7 °C 3.5 °C 1009.7 hPa SSE 15.1 km/h 32.2 km/h 74.9% 0 mm 153 W/m2
11:19 7.7 °C 3.4 °C 1009.7 hPa SSE 16.6 km/h 30.6 km/h 74% 0 mm 158 W/m2
11:24 7.7 °C 3.3 °C 1009.7 hPa SSE 15 km/h 25.7 km/h 73.8% 0 mm 169 W/m2
11:29 7.7 °C 3.2 °C 1009.4 hPa SSE 19 km/h 35.4 km/h 72.8% 0 mm 169 W/m2
11:34 7.7 °C 3 °C 1009.4 hPa SSE 18.7 km/h 32.2 km/h 72% 0 mm 144 W/m2
11:39 7.7 °C 3 °C 1009.4 hPa SSE 16.4 km/h 37 km/h 72% 0 mm 151 W/m2
11:44 7.7 °C 2.9 °C 1009.4 hPa SSE 14.8 km/h 37 km/h 72% 0 mm 172 W/m2
11:49 7.7 °C 3 °C 1009.4 hPa SSE 13.2 km/h 29 km/h 72% 0 mm 176 W/m2
11:54 7.7 °C 2.8 °C 1009.4 hPa SSE 14.8 km/h 25.7 km/h 71.3% 0 mm 172 W/m2
11:59 7.7 °C 2.8 °C 1009.4 hPa SSE 12.4 km/h 24.1 km/h 71% 0 mm 176 W/m2
12:04 7.8 °C 2.9 °C 1009 hPa SSE 14.2 km/h 32.2 km/h 71% 0 mm 195 W/m2
12:09 7.8 °C 2.9 °C 1009 hPa SE 13.8 km/h 33.8 km/h 71% 0 mm 250 W/m2
12:14 7.8 °C 2.8 °C 1009 hPa SSE 17.4 km/h 33.8 km/h 70.6% 0 mm 250 W/m2
12:19 7.8 °C 2.7 °C 1009 hPa SE 20 km/h 37 km/h 70.1% 0 mm 230 W/m2
12:24 7.8 °C 2.7 °C 1009 hPa SSE 17.9 km/h 37 km/h 69.8% 0 mm 271 W/m2
12:29 7.8 °C 2.4 °C 1009 hPa SSE 17.9 km/h 35.4 km/h 69% 0 mm 272 W/m2
12:34 7.8 °C 2.6 °C 1009 hPa SSE 14.8 km/h 35.4 km/h 69.8% 0 mm 248 W/m2
12:39 7.7 °C 2.6 °C 1009 hPa SSE 12.9 km/h 24.1 km/h 70% 0 mm 248 W/m2
12:44 7.7 °C 2.6 °C 1009 hPa SSE 10.3 km/h 24.1 km/h 70% 0 mm 155 W/m2
12:49 7.7 °C 2.7 °C 1009 hPa SSE 9.8 km/h 24.1 km/h 70.6% 0 mm 151 W/m2
12:54 7.6 °C 2.7 °C 1009 hPa SSE 9 km/h 17.7 km/h 71% 0 mm 163 W/m2
12:59 7.6 °C 2.7 °C 1008.7 hPa SSE 12.1 km/h 27.4 km/h 71% 0 mm 163 W/m2
13:04 7.4 °C 2.6 °C 1008.7 hPa South 14 km/h 29 km/h 71% 0 mm 181 W/m2
13:09 7.5 °C 2.6 °C 1008.7 hPa South 4.5 km/h 20.9 km/h 71% 0 mm 192 W/m2
13:14 7.7 °C 2.8 °C 1008.7 hPa SE 9.2 km/h 24.1 km/h 71% 0 mm 163 W/m2
13:19 7.7 °C 2.7 °C 1008.7 hPa SE 11.6 km/h 24.1 km/h 70.5% 0 mm 199 W/m2
13:24 7.6 °C 2.5 °C 1008.7 hPa SE 13 km/h 30.6 km/h 70% 0 mm 162 W/m2
13:29 7.6 °C 2.4 °C 1008.4 hPa SE 11.6 km/h 33.8 km/h 70% 0 mm 163 W/m2
13:34 7.5 °C 2.4 °C 1008.4 hPa SSE 12.7 km/h 33.8 km/h 70% 0 mm 202 W/m2
13:39 7.6 °C 2.4 °C 1008.4 hPa SSE 14.8 km/h 25.7 km/h 70% 0 mm 216 W/m2
13:44 7.7 °C 2.6 °C 1008.4 hPa SSE 11.1 km/h 22.5 km/h 70% 0 mm 229 W/m2
13:49 7.8 °C 2.7 °C 1008.4 hPa SSE 11.7 km/h 19.3 km/h 70% 0 mm 232 W/m2
13:54 7.7 °C 2.5 °C 1008.4 hPa SSE 12.2 km/h 22.5 km/h 69.5% 0 mm 172 W/m2
13:59 7.7 °C 2.6 °C 1008 hPa SSE 10.5 km/h 24.1 km/h 70% 0 mm 176 W/m2
14:04 7.7 °C 2.6 °C 1008 hPa SSE 12.2 km/h 22.5 km/h 70% 0 mm 174 W/m2
14:09 7.7 °C 2.6 °C 1008 hPa SE 12.1 km/h 22.5 km/h 70% 0 mm 174 W/m2
14:14 7.7 °C 2.6 °C 1008 hPa SSE 10.5 km/h 22.5 km/h 70% 0 mm 163 W/m2
14:19 7.7 °C 2.7 °C 1007.7 hPa SSE 9.3 km/h 22.5 km/h 70.4% 0 mm 156 W/m2
14:24 7.8 °C 2.8 °C 1007.7 hPa SE 11.9 km/h 27.4 km/h 70.7% 0 mm 132 W/m2
14:29 7.8 °C 2.9 °C 1007.7 hPa SE 13.4 km/h 25.7 km/h 71% 0 mm 132 W/m2
14:34 7.8 °C 2.9 °C 1007.3 hPa SE 13.2 km/h 27.4 km/h 71% 0 mm 134 W/m2
14:39 7.8 °C 2.9 °C 1007.3 hPa SE 12.7 km/h 27.4 km/h 71% 0 mm 130 W/m2
14:44 7.7 °C 2.8 °C 1007.3 hPa SE 9.7 km/h 27.4 km/h 71% 0 mm 113 W/m2
14:49 7.7 °C 2.8 °C 1007.3 hPa SE 13.2 km/h 27.4 km/h 71% 0 mm 100 W/m2
14:54 7.7 °C 2.7 °C 1007.3 hPa SE 8.5 km/h 27.4 km/h 71% 0 mm 105 W/m2
14:59 7.7 °C 2.8 °C 1007.3 hPa SE 13.8 km/h 29 km/h 71% 0 mm 102 W/m2
15:04 7.6 °C 2.7 °C 1007.3 hPa SE 10.3 km/h 25.7 km/h 71% 0 mm 95 W/m2
15:09 7.6 °C 2.7 °C 1007.3 hPa SE 10.9 km/h 24.1 km/h 71% 0 mm 86 W/m2
15:14 7.4 °C 2.6 °C 1007.3 hPa SSE 9.5 km/h 19.3 km/h 71.1% 0 mm 72 W/m2
15:19 7.4 °C 2.7 °C 1007.3 hPa SE 13.4 km/h 25.7 km/h 72% 0 mm 60 W/m2
15:24 7.4 °C 2.7 °C 1007.3 hPa SSE 10.5 km/h 29 km/h 72% 0 mm 51 W/m2
15:29 7.3 °C 2.7 °C 1007.3 hPa SE 13 km/h 29 km/h 72% 0 mm 40 W/m2
15:34 7.3 °C 2.6 °C 1007.3 hPa SE 15.3 km/h 29 km/h 72% 0 mm 37 W/m2
15:39 7.3 °C 2.6 °C 1007.3 hPa SE 10.8 km/h 24.1 km/h 72% 0 mm 30 W/m2
15:44 7.3 °C 2.6 °C 1007.3 hPa SE 9.7 km/h 29 km/h 72% 0 mm 23 W/m2
15:49 7.2 °C 2.6 °C 1007 hPa SE 12.6 km/h 29 km/h 72.3% 0 mm 19 W/m2
15:54 7.2 °C 2.7 °C 1007 hPa SE 11.1 km/h 20.9 km/h 73% 0 mm 14 W/m2
15:59 7.1 °C 2.6 °C 1007 hPa SE 10 km/h 22.5 km/h 73% 0 mm 12 W/m2
16:04 7.1 °C 2.6 °C 1007 hPa ESE 10.1 km/h 20.9 km/h 73% 0 mm 11 W/m2
16:09 7.1 °C 2.6 °C 1007 hPa SE 11.6 km/h 27.4 km/h 73.3% 0 mm 7 W/m2
16:14 7 °C 2.7 °C 1007 hPa SE 10.6 km/h 25.7 km/h 74% 0 mm 5 W/m2
16:19 6.9 °C 2.6 °C 1007 hPa SE 10.9 km/h 22.5 km/h 74% 0 mm 5 W/m2
16:24 6.9 °C 2.6 °C 1007 hPa SE 11.1 km/h 24.1 km/h 74% 0 mm 0 W/m2
16:29 6.9 °C 2.6 °C 1007 hPa SE 12.1 km/h 22.5 km/h 74% 0 mm 0 W/m2
16:34 6.8 °C 2.6 °C 1006.7 hPa ESE 10 km/h 25.7 km/h 74% 0 mm 0 W/m2
16:39 6.8 °C 2.5 °C 1006.7 hPa SE 11.3 km/h 25.7 km/h 74% 0 mm 0 W/m2
16:44 6.8 °C 2.5 °C 1006.7 hPa SE 9.3 km/h 17.7 km/h 74% 0 mm 0 W/m2
16:49 6.7 °C 2.4 °C 1006.7 hPa SE 7.2 km/h 17.7 km/h 74% 0 mm 0 W/m2
16:54 6.7 °C 2.6 °C 1006.7 hPa SE 9.3 km/h 24.1 km/h 74.8% 0 mm 0 W/m2
16:59 6.6 °C 2.5 °C 1006.7 hPa SE 11.4 km/h 20.9 km/h 75% 0 mm 0 W/m2
17:04 6.6 °C 2.5 °C 1006.7 hPa SE 7.1 km/h 17.7 km/h 75% 0 mm 0 W/m2
17:09 6.4 °C 2.3 °C 1006.7 hPa SE 7.1 km/h 19.3 km/h 75% 0 mm 0 W/m2
17:14 6.4 °C 2.5 °C 1006.7 hPa SE 10 km/h 19.3 km/h 76% 0 mm 0 W/m2
17:19 6.3 °C 2.4 °C 1006.3 hPa SE 9.5 km/h 20.9 km/h 76% 0 mm 0 W/m2
17:24 6.3 °C 2.4 °C 1006.3 hPa ESE 8 km/h 17.7 km/h 76% 0 mm 0 W/m2
17:29 6.3 °C 2.3 °C 1006.3 hPa SE 11.3 km/h 25.7 km/h 76% 0 mm 0 W/m2
17:34 6.2 °C 2.5 °C 1006.3 hPa SE 10.1 km/h 20.9 km/h 76.9% 0 mm 0 W/m2
17:39 6.2 °C 2.5 °C 1006.3 hPa ESE 8.2 km/h 22.5 km/h 77% 0 mm 0 W/m2
17:44 6.1 °C 2.4 °C 1006.3 hPa ESE 9.7 km/h 19.3 km/h 77% 0 mm 0 W/m2
17:49 6.1 °C 2.4 °C 1006.3 hPa ESE 7.4 km/h 19.3 km/h 77% 0 mm 0 W/m2
17:54 6 °C 2.3 °C 1006.3 hPa SE 9.3 km/h 22.5 km/h 77% 0 mm 0 W/m2
17:59 5.9 °C 2.3 °C 1006 hPa ESE 8.5 km/h 22.5 km/h 77.3% 0 mm 0 W/m2
18:04 5.9 °C 2.4 °C 1006.3 hPa SE 8.2 km/h 19.3 km/h 78% 0 mm 0 W/m2
18:09 5.8 °C 2.3 °C 1006 hPa ESE 11.9 km/h 24.1 km/h 78% 0 mm 0 W/m2
18:14 5.8 °C 2.3 °C 1006 hPa SE 8 km/h 20.9 km/h 78% 0 mm 0 W/m2
18:19 5.7 °C 2.2 °C 1006 hPa SE 8.7 km/h 19.3 km/h 78% 0 mm 0 W/m2
18:24 5.6 °C 2.1 °C 1006 hPa SE 7.7 km/h 19.3 km/h 78% 0 mm 0 W/m2
18:29 5.6 °C 2.1 °C 1006.3 hPa SE 8.7 km/h 22.5 km/h 78% 0 mm 0 W/m2
18:34 5.6 °C 2.1 °C 1006.3 hPa ESE 10.9 km/h 20.9 km/h 78% 0 mm 0 W/m2
18:39 5.6 °C 2.2 °C 1006.3 hPa ESE 9.3 km/h 27.4 km/h 78.8% 0 mm 0 W/m2
18:44 5.6 °C 2.2 °C 1006.3 hPa ESE 7.7 km/h 16.1 km/h 78.8% 0 mm 0 W/m2
18:49 5.6 °C 2.2 °C 1006.3 hPa ESE 10.1 km/h 19.3 km/h 78.7% 0 mm 0 W/m2
18:54 5.6 °C 2.2 °C 1006.3 hPa SE 9.8 km/h 22.5 km/h 79% 0 mm 0 W/m2
18:59 5.6 °C 2.2 °C 1006.3 hPa SE 9 km/h 22.5 km/h 79% 0 mm 0 W/m2
19:04 5.6 °C 2.2 °C 1006.3 hPa ESE 9.5 km/h 20.9 km/h 79% 0 mm 0 W/m2
19:09 5.6 °C 2.2 °C 1006.3 hPa SE 6.9 km/h 20.9 km/h 79% 0 mm 0 W/m2
19:14 5.6 °C 2.2 °C 1006.3 hPa ESE 8.7 km/h 20.9 km/h 79% 0 mm 0 W/m2
19:19 5.6 °C 2.2 °C 1006 hPa ESE 6.4 km/h 14.5 km/h 79% 0 mm 0 W/m2
19:24 5.6 °C 2.2 °C 1006.3 hPa SE 6 km/h 12.9 km/h 79.2% 0 mm 0 W/m2
19:29 5.6 °C 2.4 °C 1006 hPa ESE 8.7 km/h 16.1 km/h 80% 0 mm 0 W/m2
19:34 5.6 °C 2.4 °C 1006 hPa ESE 11.3 km/h 20.9 km/h 80% 0 mm 0 W/m2
19:39 5.6 °C 2.4 °C 1006 hPa ESE 11.4 km/h 20.9 km/h 80% 0 mm 0 W/m2
19:44 5.6 °C 2.4 °C 1005.6 hPa ESE 10.6 km/h 24.1 km/h 80% 0 mm 0 W/m2
19:49 5.6 °C 2.5 °C 1005.6 hPa ESE 9.5 km/h 24.1 km/h 80.4% 0 mm 0 W/m2
19:54 5.6 °C 2.6 °C 1005.6 hPa ESE 12.2 km/h 25.7 km/h 81% 0 mm 0 W/m2
19:59 5.6 °C 2.6 °C 1005.6 hPa ESE 9.5 km/h 19.3 km/h 81% 0 mm 0 W/m2
20:04 5.6 °C 2.6 °C 1005.6 hPa ESE 12.9 km/h 25.7 km/h 81% 0 mm 0 W/m2
20:09 5.6 °C 2.6 °C 1005.6 hPa ESE 12.6 km/h 25.7 km/h 81% 0 mm 0 W/m2
20:14 5.6 °C 2.7 °C 1005.6 hPa ESE 10.6 km/h 25.7 km/h 81.6% 0 mm 0 W/m2
20:19 5.5 °C 2.6 °C 1005.6 hPa ESE 8.9 km/h 25.7 km/h 81.6% 0 mm 0 W/m2
20:24 5.5 °C 2.7 °C 1005.6 hPa ESE 8.4 km/h 20.9 km/h 81.9% 0 mm 0 W/m2
20:29 5.5 °C 2.7 °C 1005.6 hPa ESE 8.5 km/h 20.9 km/h 82% 0 mm 0 W/m2
20:34 5.4 °C 2.7 °C 1005.6 hPa ESE 9 km/h 20.9 km/h 82% 0 mm 0 W/m2
20:39 5.4 °C 2.7 °C 1005.6 hPa ESE 8 km/h 17.7 km/h 82% 0 mm 0 W/m2
20:44 5.4 °C 2.7 °C 1005.6 hPa ESE 6 km/h 19.3 km/h 82% 0 mm 0 W/m2
20:49 5.4 °C 2.7 °C 1005.6 hPa ESE 7.7 km/h 19.3 km/h 82.8% 0 mm 0 W/m2
20:54 5.4 °C 2.8 °C 1005.6 hPa ESE 5.3 km/h 17.7 km/h 83% 0 mm 0 W/m2
20:59 5.5 °C 2.8 °C 1005.6 hPa SE 6 km/h 12.9 km/h 83% 0 mm 0 W/m2
21:04 5.5 °C 2.8 °C 1005.6 hPa ESE 2.4 km/h 12.9 km/h 83% 0 mm 0 W/m2
21:09 5.5 °C 2.8 °C 1005.6 hPa ESE 4.8 km/h 14.5 km/h 83% 0 mm 0 W/m2
21:14 5.5 °C 2.8 °C 1005.6 hPa ESE 4.8 km/h 14.5 km/h 83% 0 mm 0 W/m2
21:18 5.5 °C 2.8 °C 1005.6 hPa ESE 4.2 km/h 12.9 km/h 83.3% 0 mm 0 W/m2
21:24 5.5 °C 3 °C 1005.6 hPa East 6.4 km/h 14.5 km/h 84% 0 mm 0 W/m2
21:29 5.6 °C 3.1 °C 1005.6 hPa ESE 6.8 km/h 17.7 km/h 84% 0 mm 0 W/m2
21:34 5.5 °C 3 °C 1005.6 hPa ESE 7.2 km/h 16.1 km/h 84% 0 mm 0 W/m2
21:39 5.5 °C 3 °C 1005.6 hPa ESE 11.7 km/h 22.5 km/h 84% 0 mm 0 W/m2
21:44 5.4 °C 2.9 °C 1005.3 hPa ESE 7.1 km/h 22.5 km/h 84% 0 mm 0 W/m2
21:49 5.4 °C 2.9 °C 1005.3 hPa ESE 7.6 km/h 20.9 km/h 84% 0 mm 0 W/m2
21:54 5.3 °C 2.8 °C 1005.3 hPa SE 6.1 km/h 14.5 km/h 84% 0 mm 0 W/m2
21:59 5.3 °C 2.8 °C 1005.3 hPa ESE 6.6 km/h 14.5 km/h 84% 0 mm 0 W/m2
22:04 5.3 °C 2.9 °C 1005.3 hPa ESE 6.1 km/h 16.1 km/h 84.8% 0 mm 0 W/m2
22:09 5.3 °C 3 °C 1005.3 hPa ESE 4.8 km/h 11.3 km/h 85% 0 mm 0 W/m2
22:14 5.2 °C 2.9 °C 1005.3 hPa ESE 5.1 km/h 11.3 km/h 85% 0 mm 0 W/m2
22:19 5.2 °C 2.9 °C 1005.3 hPa East 8 km/h 16.1 km/h 85% 0 mm 0 W/m2
22:24 5.3 °C 3 °C 1005 hPa ESE 6.8 km/h 16.1 km/h 85% 0 mm 0 W/m2
22:29 5.3 °C 3 °C 1005 hPa ESE 4.8 km/h 11.3 km/h 85% 0 mm 0 W/m2
22:34 5.2 °C 2.9 °C 1005 hPa ESE 5.1 km/h 12.9 km/h 85% 0 mm 0 W/m2
22:39 5.2 °C 2.9 °C 1005 hPa ESE 5 km/h 12.9 km/h 85% 0 mm 0 W/m2
22:44 5.3 °C 3.1 °C 1005 hPa ESE 4.8 km/h 14.5 km/h 85.7% 0 mm 0 W/m2
22:49 5.3 °C 3.1 °C 1005 hPa ESE 5.8 km/h 14.5 km/h 86% 0 mm 0 W/m2
22:54 5.3 °C 3.1 °C 1005 hPa ESE 4.2 km/h 14.5 km/h 86% 0 mm 0 W/m2
22:59 5.3 °C 3.1 °C 1005 hPa ESE 3.9 km/h 14.5 km/h 86% 0 mm 0 W/m2
23:04 5.2 °C 3.1 °C 1005 hPa East 4.8 km/h 14.5 km/h 85.8% 0 mm 0 W/m2
23:09 5.2 °C 3.1 °C 1005 hPa East 4.3 km/h 11.3 km/h 85.7% 0 mm 0 W/m2
23:14 5.2 °C 3.1 °C 1005 hPa ESE 3.5 km/h 12.9 km/h 86% 0 mm 0 W/m2
23:19 5.2 °C 3.1 °C 1005 hPa East 3.9 km/h 9.7 km/h 86% 0 mm 0 W/m2
23:24 5.2 °C 3.1 °C 1005 hPa East 4.2 km/h 11.3 km/h 86% 0 mm 0 W/m2
23:29 5.1 °C 3 °C 1005 hPa East 2.4 km/h 9.7 km/h 86% 0 mm 0 W/m2
23:34 5.1 °C 3 °C 1005 hPa ESE 4.3 km/h 11.3 km/h 86% 0 mm 0 W/m2
23:39 5.1 °C 3 °C 1005 hPa ENE 4.3 km/h 14.5 km/h 86% 0 mm 0 W/m2
23:44 5.1 °C 3 °C 1004.6 hPa ESE 4.5 km/h 12.9 km/h 86% 0 mm 0 W/m2
23:49 5.1 °C 3 °C 1004.6 hPa ESE 5.6 km/h 12.9 km/h 86% 0 mm 0 W/m2
23:54 5.2 °C 3.1 °C 1004.6 hPa ESE 5 km/h 12.9 km/h 86% 0 mm 0 W/m2
23:59 5.2 °C 3.2 °C 1004.6 hPa ESE 7.1 km/h 17.7 km/h 86.8% 0 mm 0 W/m2
Bath Spa Weather
Compliments of Weather Underground - 2 mb